x

Halibut Bank (46146) Wave Buoy

12:00 - Fri 31st Oct 2014 All times are PDT. -7 hours from GMT.

  • Sig Wave height 0.3ft
  • Peak Period 3s
  • Wind
    7mph, 9mph gusts
  • Sea Temp 52°f
  • Aire Temp 53°f
  • Sea Pressure 1007.1mb
  • Halibut Bank
  • Halibut Bank

More Historic Weather Station data

Upgrade to MSW Pro to gain access to the past 30 days of data for over 8000 Wavebouys and Weather Stations around the globe.

Join Pro

Comparision Forecast

View Surf forecast
   
vie 10/31 12:00 0.3ft 3s 7 9 mph 1007.1mb 52f 53f
jue 10/30 11:00 0.3ft 4s 4 9 mph 1007.5mb 52f 53f
10:00 0.3ft 3s 4 7 mph 1007.3mb 52f 53f
9:00 0.7ft 3s 4 7 mph 1006.2mb 52f 53f
8:00 1ft 3s 4 7 mph 1005.5mb 52f 53f
7:00 1ft 3s 7 9 mph 1005.5mb 52f 53f
6:00 1ft 3s 13 18 mph 1005.2mb 52f 54f
5:00 0.7ft 2s 13
mph
1004.7mb 52f 53f
4:00 0.7ft 2s 13 18 mph 1005.3mb 52f 53f
3:00 0.7ft 2s 13 16 mph 1005.6mb 52f 53f
2:00 1ft 2s 11 13 mph 1006.9mb 52f 52f
1:00 1.3ft 2s 13 18 mph 1007.6mb 52f 52f
12:00 1ft 2s 13 16 mph 1009mb 52f 52f
11:00 1.3ft 3s 13 16 mph 1009.6mb 52f 52f
10:00 1ft 2s 18 22 mph 1009.2mb 52f 52f
9:00 0.7ft 2s 18 20 mph 1009.1mb 52f 53f
8:00 1ft 2s 13 16 mph 1009.7mb 52f 52f
7:00 1ft 2s 16 18 mph 1010.8mb 52f 52f
6:00 0.7ft 2s 16 18 mph 1011.6mb 52f 53f
5:00 1ft 2s 11 13 mph 1012.9mb 52f 53f
4:00 0.7ft 2s 13 16 mph 1014.1mb 52f 53f
3:00 0.7ft 3s 7 9 mph 1014.9mb 52f 53f
2:00 0.7ft 3s 11 13 mph 1015.7mb 52f 53f
1:00 0.7ft 2s 11 13 mph 1015.8mb 52f 53f
12:00 0.7ft 3s 11 13 mph 1016.5mb 52f 53f
mié 10/29 11:00 1ft 3s 9 11 mph 1017.3mb 52f 54f
10:00 1ft 3s 9 13 mph 1017.3mb 52f 55f
9:00 0.7ft 2s 4 7 mph 1017.5mb 52f 54f
8:00 0.7ft 2s 11 13 mph 1017.8mb 52f 55f
7:00 1ft 2s 11 13 mph 1018.4mb 52f 55f
6:00 1.3ft 2s 13 18 mph 1018.5mb 53f 55f
5:00 1ft 2s 16 18 mph 1018.5mb 52f 55f
4:00 0.7ft 2s 13 16 mph 1018.6mb 52f 54f
3:00 0.7ft 2s 11 13 mph 1018.7mb 53f 55f
2:00 0.7ft 2s 9 13 mph 1018.6mb 53f 55f
1:00 1ft 3s 11
mph
1018.6mb 53f 55f
12:00 1ft 3s 16 18 mph 1018mb 53f 54f
11:00 1ft 3s 13 18 mph 1017.3mb 52f 54f
10:00 1ft 2s 16 18 mph 1016.6mb 52f 54f
9:00 1ft 3s 13 16 mph 1015.8mb 52f 55f
8:00 1.3ft 3s 11 13 mph 1014.8mb 52f 55f
7:00 1.3ft 3s 4 7 mph 1014.1mb 52f 54f
6:00 2ft 3s 13 16 mph 1013.5mb 52f 54f
5:00 2ft 3s 13 18 mph 1012.6mb 52f 54f
4:00 2.5ft 4s 18 20 mph 1012.1mb 52f 54f
3:00 2ft 4s 18 20 mph 1011.7mb 52f 54f
2:00 2ft 4s 16 18 mph 1011.2mb 52f 55f
1:00 2ft 4s 20 25 mph 1010.5mb 52f 55f
12:00 2.5ft 4s 18 22 mph 1009.8mb 52f 54f
mar 10/28 11:00 2.5ft 4s 20 25 mph 1009.2mb 52f 54f
10:00 2.5ft 4s 20 22 mph 1008.4mb 52f 54f
9:00 2.5ft 4s 16 20 mph 1008mb 52f 54f
8:00 3ft 4s 18 22 mph 1007.5mb 52f 54f
7:00 3ft 4s 18 22 mph 1007.1mb 53f 54f
6:00 3ft 4s 18 22 mph 1006.9mb 52f 54f
5:00 3.5ft 4s 25 29 mph 1006.4mb 53f 54f
4:00 4ft 4s 22 27 mph 1006.4mb 53f 53f
3:00 4.5ft 4s 25 31 mph 1006.3mb 53f 54f
2:00 4.5ft 4s 27 31 mph 1006.6mb 53f 54f
1:00 4ft 4s 27 31 mph 1006.7mb 53f 53f
12:00 4ft 4s 27 34 mph 1006.9mb 53f 54f
11:00 4.5ft 4s 25 31 mph 1007.1mb 53f 53f
10:00 4.5ft 4s 22 29 mph 1007.3mb 53f 52f
9:00 5ft 4s 29 34 mph 1007.1mb 53f 52f
8:00 4.5ft 4s 31 36 mph 1006.7mb 53f 53f
7:00 3.5ft 4s 29 36 mph 1007.5mb 53f 52f
6:00 3.5ft 4s 27 31 mph 1007.9mb 53f 51f
5:00 3.5ft 4s 27 36 mph 1007.7mb 53f 52f
4:00 3.5ft 4s 29 36 mph 1007.9mb 53f 52f
3:00 3.5ft 4s 29 36 mph 1009mb 52f 52f
2:00 4ft 4s 29 36 mph 1009.9mb 52f 52f
1:00 3.5ft 4s 29 34 mph 1010.3mb 53f 52f
12:00 3ft 4s 27 31 mph 1011mb 52f 52f
lun 10/27 11:00 2.5ft 4s 27 31 mph 1011.5mb 52f 53f
10:00 2.5ft 3s 27 31 mph 1011.9mb 52f 52f
9:00 2ft 3s 25 31 mph 1012.6mb 52f 52f
8:00 2.5ft 3s 22 27 mph 1013.7mb 52f 51f
7:00 2ft 3s 20 27 mph 1014mb 52f 52f
6:00 1.6ft 4s 20 22 mph 1014.7mb 52f 52f
5:00 1.6ft 3s 18 22 mph 1015.4mb 52f 52f
4:00 2ft 4s 18 22 mph 1016.6mb 53f 53f
3:00 2ft 4s 18 20 mph 1017.3mb 53f 53f
2:00 2ft 4s 16 20 mph 1018.1mb 53f 52f
1:00 2ft 4s 18 22 mph 1018.6mb 53f 52f
12:00 1.6ft 4s 18 22 mph 1019.5mb 53f 51f
11:00 2ft 4s 16 20 mph 1019.5mb 53f 51f
10:00 2ft 4s 16 20 mph 1019.6mb 53f 50f
9:00 2ft 4s 18 22 mph 1019.5mb 53f 50f